sensor_id;sensor_type;location;lat;lon;timestamp;P1;durP1;ratioP1;P2;durP2;ratioP2
13295;SDS011;64850;60.390;-1.374;2022-11-20T00:01:08;8.77;;;2.40;;
13295;SDS011;64850;60.390;-1.374;2022-11-20T00:03:35;10.30;;;2.45;;
13295;SDS011;64850;60.390;-1.374;2022-11-20T00:06:02;11.07;;;2.30;;
13295;SDS011;64850;60.390;-1.374;2022-11-20T00:08:30;12.05;;;2.33;;
13295;SDS011;64850;60.390;-1.374;2022-11-20T00:10:56;12.88;;;2.40;;
13295;SDS011;64850;60.390;-1.374;2022-11-20T00:13:22;10.65;;;3.00;;
13295;SDS011;64850;60.390;-1.374;2022-11-20T00:15:48;6.97;;;2.38;;
13295;SDS011;64850;60.390;-1.374;2022-11-20T00:18:21;8.23;;;2.25;;
13295;SDS011;64850;60.390;-1.374;2022-11-20T00:20:47;11.27;;;2.35;;
13295;SDS011;64850;60.390;-1.374;2022-11-20T00:23:13;10.07;;;2.03;;
13295;SDS011;64850;60.390;-1.374;2022-11-20T00:25:39;7.95;;;2.20;;
13295;SDS011;64850;60.390;-1.374;2022-11-20T00:28:05;8.27;;;2.40;;
13295;SDS011;64850;60.390;-1.374;2022-11-20T00:30:31;18.90;;;2.92;;
13295;SDS011;64850;60.390;-1.374;2022-11-20T00:32:57;9.82;;;2.22;;
13295;SDS011;64850;60.390;-1.374;2022-11-20T00:35:24;11.90;;;2.42;;
13295;SDS011;64850;60.390;-1.374;2022-11-20T00:37:52;9.20;;;2.47;;
13295;SDS011;64850;60.390;-1.374;2022-11-20T00:40:21;12.63;;;2.83;;
13295;SDS011;64850;60.390;-1.374;2022-11-20T00:42:49;14.45;;;2.65;;
13295;SDS011;64850;60.390;-1.374;2022-11-20T00:45:15;13.10;;;2.70;;
13295;SDS011;64850;60.390;-1.374;2022-11-20T00:47:43;10.88;;;2.35;;
13295;SDS011;64850;60.390;-1.374;2022-11-20T00:50:12;8.00;;;2.58;;
13295;SDS011;64850;60.390;-1.374;2022-11-20T00:52:38;14.43;;;2.60;;
13295;SDS011;64850;60.390;-1.374;2022-11-20T00:55:04;13.43;;;2.08;;
13295;SDS011;64850;60.390;-1.374;2022-11-20T00:57:30;10.75;;;2.47;;
13295;SDS011;64850;60.390;-1.374;2022-11-20T00:59:56;11.35;;;2.20;;
13295;SDS011;64850;60.390;-1.374;2022-11-20T01:02:22;7.40;;;2.20;;
13295;SDS011;64850;60.390;-1.374;2022-11-20T01:04:48;8.23;;;2.50;;
13295;SDS011;64850;60.390;-1.374;2022-11-20T01:07:14;11.02;;;2.53;;
13295;SDS011;64850;60.390;-1.374;2022-11-20T01:09:40;7.28;;;2.10;;
13295;SDS011;64850;60.390;-1.374;2022-11-20T01:12:06;8.20;;;1.95;;
13295;SDS011;64850;60.390;-1.374;2022-11-20T01:14:32;9.18;;;2.00;;
13295;SDS011;64850;60.390;-1.374;2022-11-20T01:16:58;10.10;;;2.38;;
13295;SDS011;64850;60.390;-1.374;2022-11-20T01:19:24;9.98;;;2.20;;
13295;SDS011;64850;60.390;-1.374;2022-11-20T01:21:51;6.05;;;2.13;;
13295;SDS011;64850;60.390;-1.374;2022-11-20T01:24:19;8.10;;;2.30;;
13295;SDS011;64850;60.390;-1.374;2022-11-20T01:26:47;9.73;;;2.40;;
13295;SDS011;64850;60.390;-1.374;2022-11-20T01:29:19;6.50;;;1.85;;
13295;SDS011;64850;60.390;-1.374;2022-11-20T01:31:47;6.30;;;1.90;;
13295;SDS011;64850;60.390;-1.374;2022-11-20T01:34:15;9.57;;;2.20;;
13295;SDS011;64850;60.390;-1.374;2022-11-20T01:36:43;12.13;;;2.15;;
13295;SDS011;64850;60.390;-1.374;2022-11-20T01:39:11;13.27;;;2.30;;
13295;SDS011;64850;60.390;-1.374;2022-11-20T01:41:39;11.77;;;2.22;;
13295;SDS011;64850;60.390;-1.374;2022-11-20T01:47:48;9.07;;;2.00;;
13295;SDS011;64850;60.390;-1.374;2022-11-20T01:50:24;5.88;;;2.13;;
13295;SDS011;64850;60.390;-1.374;2022-11-20T01:53:00;8.77;;;2.00;;
13295;SDS011;64850;60.390;-1.374;2022-11-20T01:55:40;10.35;;;2.13;;
13295;SDS011;64850;60.390;-1.374;2022-11-20T01:58:14;7.82;;;2.45;;
13295;SDS011;64850;60.390;-1.374;2022-11-20T02:00:41;9.73;;;2.35;;
13295;SDS011;64850;60.390;-1.374;2022-11-20T02:03:11;11.05;;;2.53;;
13295;SDS011;64850;60.390;-1.374;2022-11-20T02:08:15;9.00;;;2.08;;
13295;SDS011;64850;60.390;-1.374;2022-11-20T02:10:42;11.25;;;2.72;;
13295;SDS011;64850;60.390;-1.374;2022-11-20T02:13:08;6.28;;;1.92;;
13295;SDS011;64850;60.390;-1.374;2022-11-20T02:15:52;6.63;;;2.00;;
13295;SDS011;64850;60.390;-1.374;2022-11-20T02:18:19;8.98;;;2.08;;
13295;SDS011;64850;60.390;-1.374;2022-11-20T02:20:47;12.05;;;2.67;;
13295;SDS011;64850;60.390;-1.374;2022-11-20T02:23:27;12.43;;;2.50;;
13295;SDS011;64850;60.390;-1.374;2022-11-20T02:26:16;8.50;;;2.20;;
13295;SDS011;64850;60.390;-1.374;2022-11-20T02:28:43;9.77;;;2.33;;
13295;SDS011;64850;60.390;-1.374;2022-11-20T02:31:09;12.63;;;2.00;;
13295;SDS011;64850;60.390;-1.374;2022-11-20T02:33:35;9.32;;;2.10;;
13295;SDS011;64850;60.390;-1.374;2022-11-20T02:36:01;7.65;;;2.25;;
13295;SDS011;64850;60.390;-1.374;2022-11-20T02:38:27;12.07;;;2.53;;
13295;SDS011;64850;60.390;-1.374;2022-11-20T02:40:53;12.15;;;2.30;;
13295;SDS011;64850;60.390;-1.374;2022-11-20T02:43:19;13.43;;;2.25;;
13295;SDS011;64850;60.390;-1.374;2022-11-20T02:45:44;7.25;;;2.17;;
13295;SDS011;64850;60.390;-1.374;2022-11-20T02:48:10;9.68;;;2.05;;
13295;SDS011;64850;60.390;-1.374;2022-11-20T02:50:37;10.70;;;2.13;;
13295;SDS011;64850;60.390;-1.374;2022-11-20T02:53:04;15.15;;;2.15;;
13295;SDS011;64850;60.390;-1.374;2022-11-20T02:55:33;11.82;;;2.60;;
13295;SDS011;64850;60.390;-1.374;2022-11-20T02:57:59;9.65;;;2.60;;
13295;SDS011;64850;60.390;-1.374;2022-11-20T03:00:25;11.27;;;2.42;;
13295;SDS011;64850;60.390;-1.374;2022-11-20T03:02:51;8.55;;;2.15;;
13295;SDS011;64850;60.390;-1.374;2022-11-20T03:05:16;6.45;;;1.77;;
13295;SDS011;64850;60.390;-1.374;2022-11-20T03:07:43;8.70;;;2.10;;
13295;SDS011;64850;60.390;-1.374;2022-11-20T03:10:09;11.73;;;2.22;;
13295;SDS011;64850;60.390;-1.374;2022-11-20T03:12:35;6.85;;;2.08;;
13295;SDS011;64850;60.390;-1.374;2022-11-20T03:15:01;8.50;;;1.80;;
13295;SDS011;64850;60.390;-1.374;2022-11-20T03:17:27;6.93;;;2.38;;
13295;SDS011;64850;60.390;-1.374;2022-11-20T03:19:54;7.15;;;2.17;;
13295;SDS011;64850;60.390;-1.374;2022-11-20T03:22:20;14.27;;;2.40;;
13295;SDS011;64850;60.390;-1.374;2022-11-20T03:24:46;10.98;;;2.85;;
13295;SDS011;64850;60.390;-1.374;2022-11-20T03:27:12;10.55;;;2.88;;
13295;SDS011;64850;60.390;-1.374;2022-11-20T03:29:38;11.48;;;2.50;;
13295;SDS011;64850;60.390;-1.374;2022-11-20T03:32:04;8.25;;;2.40;;
13295;SDS011;64850;60.390;-1.374;2022-11-20T03:34:30;11.45;;;2.53;;
13295;SDS011;64850;60.390;-1.374;2022-11-20T03:36:56;12.27;;;2.42;;
13295;SDS011;64850;60.390;-1.374;2022-11-20T03:39:22;9.77;;;2.10;;
13295;SDS011;64850;60.390;-1.374;2022-11-20T03:41:48;7.20;;;1.88;;
13295;SDS011;64850;60.390;-1.374;2022-11-20T03:44:14;12.82;;;2.58;;
13295;SDS011;64850;60.390;-1.374;2022-11-20T03:46:40;7.80;;;2.33;;
13295;SDS011;64850;60.390;-1.374;2022-11-20T03:49:05;9.68;;;2.20;;
13295;SDS011;64850;60.390;-1.374;2022-11-20T03:51:32;7.32;;;2.10;;
13295;SDS011;64850;60.390;-1.374;2022-11-20T03:54:01;6.63;;;2.05;;
13295;SDS011;64850;60.390;-1.374;2022-11-20T03:56:29;10.13;;;2.45;;
13295;SDS011;64850;60.390;-1.374;2022-11-20T03:58:56;9.10;;;2.13;;
13295;SDS011;64850;60.390;-1.374;2022-11-20T04:01:26;10.43;;;2.63;;
13295;SDS011;64850;60.390;-1.374;2022-11-20T04:03:55;7.93;;;2.70;;
13295;SDS011;64850;60.390;-1.374;2022-11-20T04:06:23;11.25;;;2.58;;
13295;SDS011;64850;60.390;-1.374;2022-11-20T04:08:50;12.07;;;2.30;;
13295;SDS011;64850;60.390;-1.374;2022-11-20T04:11:20;10.60;;;2.03;;
13295;SDS011;64850;60.390;-1.374;2022-11-20T04:13:50;7.35;;;2.38;;
13295;SDS011;64850;60.390;-1.374;2022-11-20T04:16:17;7.88;;;2.08;;
13295;SDS011;64850;60.390;-1.374;2022-11-20T04:18:44;13.50;;;2.00;;
13295;SDS011;64850;60.390;-1.374;2022-11-20T04:21:10;6.97;;;1.92;;
13295;SDS011;64850;60.390;-1.374;2022-11-20T04:23:36;11.98;;;2.38;;
13295;SDS011;64850;60.390;-1.374;2022-11-20T04:26:06;11.32;;;1.80;;
13295;SDS011;64850;60.390;-1.374;2022-11-20T04:28:34;6.53;;;2.00;;
13295;SDS011;64850;60.390;-1.374;2022-11-20T04:31:05;6.47;;;1.80;;
13295;SDS011;64850;60.390;-1.374;2022-11-20T04:33:42;6.00;;;1.85;;
13295;SDS011;64850;60.390;-1.374;2022-11-20T04:36:15;6.22;;;1.73;;
13295;SDS011;64850;60.390;-1.374;2022-11-20T04:38:45;6.38;;;2.10;;
13295;SDS011;64850;60.390;-1.374;2022-11-20T04:41:16;14.32;;;2.50;;
13295;SDS011;64850;60.390;-1.374;2022-11-20T04:43:46;14.50;;;2.83;;
13295;SDS011;64850;60.390;-1.374;2022-11-20T04:46:17;11.77;;;3.42;;
13295;SDS011;64850;60.390;-1.374;2022-11-20T04:48:43;10.10;;;2.90;;
13295;SDS011;64850;60.390;-1.374;2022-11-20T04:51:12;14.05;;;3.10;;
13295;SDS011;64850;60.390;-1.374;2022-11-20T04:53:38;11.45;;;3.08;;
13295;SDS011;64850;60.390;-1.374;2022-11-20T04:56:05;14.63;;;2.90;;
13295;SDS011;64850;60.390;-1.374;2022-11-20T04:58:33;10.10;;;2.53;;
13295;SDS011;64850;60.390;-1.374;2022-11-20T05:01:00;16.98;;;3.35;;
13295;SDS011;64850;60.390;-1.374;2022-11-20T05:03:36;17.42;;;3.22;;
13295;SDS011;64850;60.390;-1.374;2022-11-20T05:06:03;15.80;;;3.28;;
13295;SDS011;64850;60.390;-1.374;2022-11-20T05:08:31;11.68;;;2.83;;
13295;SDS011;64850;60.390;-1.374;2022-11-20T05:11:04;13.73;;;3.03;;
13295;SDS011;64850;60.390;-1.374;2022-11-20T05:13:32;18.25;;;3.38;;
13295;SDS011;64850;60.390;-1.374;2022-11-20T05:16:02;14.80;;;3.08;;
13295;SDS011;64850;60.390;-1.374;2022-11-20T05:18:33;22.05;;;3.03;;
13295;SDS011;64850;60.390;-1.374;2022-11-20T05:20:59;13.27;;;3.20;;
13295;SDS011;64850;60.390;-1.374;2022-11-20T05:23:26;14.38;;;3.05;;
13295;SDS011;64850;60.390;-1.374;2022-11-20T05:25:56;19.30;;;2.78;;
13295;SDS011;64850;60.390;-1.374;2022-11-20T05:28:23;11.75;;;2.85;;
13295;SDS011;64850;60.390;-1.374;2022-11-20T05:30:49;12.15;;;3.67;;
13295;SDS011;64850;60.390;-1.374;2022-11-20T05:33:16;11.30;;;3.38;;
13295;SDS011;64850;60.390;-1.374;2022-11-20T05:35:42;10.38;;;3.13;;
13295;SDS011;64850;60.390;-1.374;2022-11-20T05:38:08;13.73;;;3.10;;
13295;SDS011;64850;60.390;-1.374;2022-11-20T05:40:33;16.90;;;2.85;;
13295;SDS011;64850;60.390;-1.374;2022-11-20T05:43:00;15.88;;;2.70;;
13295;SDS011;64850;60.390;-1.374;2022-11-20T05:45:26;9.40;;;2.55;;
13295;SDS011;64850;60.390;-1.374;2022-11-20T05:47:52;12.05;;;2.55;;
13295;SDS011;64850;60.390;-1.374;2022-11-20T05:50:18;12.73;;;2.40;;
13295;SDS011;64850;60.390;-1.374;2022-11-20T05:52:46;16.65;;;3.60;;
13295;SDS011;64850;60.390;-1.374;2022-11-20T05:55:12;13.45;;;3.25;;
13295;SDS011;64850;60.390;-1.374;2022-11-20T05:57:38;13.20;;;3.05;;
13295;SDS011;64850;60.390;-1.374;2022-11-20T06:00:07;19.35;;;3.05;;
13295;SDS011;64850;60.390;-1.374;2022-11-20T06:02:34;15.25;;;3.35;;
13295;SDS011;64850;60.390;-1.374;2022-11-20T06:05:01;14.30;;;3.35;;
13295;SDS011;64850;60.390;-1.374;2022-11-20T06:07:27;15.30;;;3.53;;
13295;SDS011;64850;60.390;-1.374;2022-11-20T06:09:53;11.13;;;2.20;;
13295;SDS011;64850;60.390;-1.374;2022-11-20T06:12:18;12.60;;;3.05;;
13295;SDS011;64850;60.390;-1.374;2022-11-20T06:14:44;15.23;;;3.92;;
13295;SDS011;64850;60.390;-1.374;2022-11-20T06:17:10;15.85;;;3.05;;
13295;SDS011;64850;60.390;-1.374;2022-11-20T06:19:36;14.68;;;3.28;;
13295;SDS011;64850;60.390;-1.374;2022-11-20T06:22:02;14.88;;;2.92;;
13295;SDS011;64850;60.390;-1.374;2022-11-20T06:24:28;11.02;;;2.95;;
13295;SDS011;64850;60.390;-1.374;2022-11-20T06:26:54;15.48;;;3.15;;
13295;SDS011;64850;60.390;-1.374;2022-11-20T06:29:20;12.80;;;3.28;;
13295;SDS011;64850;60.390;-1.374;2022-11-20T06:31:45;14.68;;;3.55;;
13295;SDS011;64850;60.390;-1.374;2022-11-20T06:34:11;14.70;;;3.13;;
13295;SDS011;64850;60.390;-1.374;2022-11-20T06:36:37;18.15;;;3.47;;
13295;SDS011;64850;60.390;-1.374;2022-11-20T06:39:03;8.80;;;2.60;;
13295;SDS011;64850;60.390;-1.374;2022-11-20T06:41:31;10.38;;;2.80;;
13295;SDS011;64850;60.390;-1.374;2022-11-20T06:43:57;12.68;;;2.70;;
13295;SDS011;64850;60.390;-1.374;2022-11-20T06:46:23;15.25;;;3.20;;
13295;SDS011;64850;60.390;-1.374;2022-11-20T06:48:49;12.75;;;3.50;;
13295;SDS011;64850;60.390;-1.374;2022-11-20T06:51:15;13.00;;;3.20;;
13295;SDS011;64850;60.390;-1.374;2022-11-20T06:53:42;16.73;;;3.38;;
13295;SDS011;64850;60.390;-1.374;2022-11-20T06:56:10;8.32;;;2.60;;
13295;SDS011;64850;60.390;-1.374;2022-11-20T06:58:36;14.20;;;2.90;;
13295;SDS011;64850;60.390;-1.374;2022-11-20T07:01:03;13.27;;;3.00;;
13295;SDS011;64850;60.390;-1.374;2022-11-20T07:03:34;15.95;;;2.85;;
13295;SDS011;64850;60.390;-1.374;2022-11-20T07:06:00;9.20;;;3.00;;
13295;SDS011;64850;60.390;-1.374;2022-11-20T07:08:27;14.73;;;3.63;;
13295;SDS011;64850;60.390;-1.374;2022-11-20T07:10:57;14.25;;;3.15;;
13295;SDS011;64850;60.390;-1.374;2022-11-20T07:13:28;12.43;;;3.47;;
13295;SDS011;64850;60.390;-1.374;2022-11-20T07:15:58;11.63;;;2.45;;
13295;SDS011;64850;60.390;-1.374;2022-11-20T07:18:25;16.77;;;3.33;;
13295;SDS011;64850;60.390;-1.374;2022-11-20T07:20:52;12.35;;;3.20;;
13295;SDS011;64850;60.390;-1.374;2022-11-20T07:23:17;14.07;;;3.20;;
13295;SDS011;64850;60.390;-1.374;2022-11-20T07:25:43;14.70;;;3.08;;
13295;SDS011;64850;60.390;-1.374;2022-11-20T07:28:09;12.63;;;3.53;;
13295;SDS011;64850;60.390;-1.374;2022-11-20T07:30:35;10.88;;;2.33;;
13295;SDS011;64850;60.390;-1.374;2022-11-20T07:33:01;10.93;;;2.20;;
13295;SDS011;64850;60.390;-1.374;2022-11-20T07:35:27;16.35;;;3.72;;
13295;SDS011;64850;60.390;-1.374;2022-11-20T07:37:53;17.63;;;3.42;;
13295;SDS011;64850;60.390;-1.374;2022-11-20T07:40:19;16.83;;;3.38;;
13295;SDS011;64850;60.390;-1.374;2022-11-20T07:42:54;14.15;;;3.13;;
13295;SDS011;64850;60.390;-1.374;2022-11-20T07:45:21;15.25;;;3.35;;
13295;SDS011;64850;60.390;-1.374;2022-11-20T07:47:48;11.45;;;2.80;;
13295;SDS011;64850;60.390;-1.374;2022-11-20T07:50:15;11.75;;;2.97;;
13295;SDS011;64850;60.390;-1.374;2022-11-20T07:52:41;17.88;;;3.22;;
13295;SDS011;64850;60.390;-1.374;2022-11-20T07:55:08;18.35;;;4.20;;
13295;SDS011;64850;60.390;-1.374;2022-11-20T07:57:35;11.95;;;2.72;;
13295;SDS011;64850;60.390;-1.374;2022-11-20T08:00:01;16.90;;;3.03;;
13295;SDS011;64850;60.390;-1.374;2022-11-20T08:02:27;18.58;;;3.53;;
13295;SDS011;64850;60.390;-1.374;2022-11-20T08:04:53;10.88;;;2.53;;
13295;SDS011;64850;60.390;-1.374;2022-11-20T08:07:19;11.25;;;2.83;;
13295;SDS011;64850;60.390;-1.374;2022-11-20T08:09:45;13.07;;;3.15;;
13295;SDS011;64850;60.390;-1.374;2022-11-20T08:12:16;16.88;;;2.97;;
13295;SDS011;64850;60.390;-1.374;2022-11-20T08:15:03;22.63;;;3.90;;
13295;SDS011;64850;60.390;-1.374;2022-11-20T08:17:33;14.90;;;2.90;;
13295;SDS011;64850;60.390;-1.374;2022-11-20T08:19:59;13.48;;;3.00;;
13295;SDS011;64850;60.390;-1.374;2022-11-20T08:22:24;17.45;;;3.45;;
13295;SDS011;64850;60.390;-1.374;2022-11-20T08:24:50;13.63;;;2.90;;
13295;SDS011;64850;60.390;-1.374;2022-11-20T08:27:16;19.20;;;3.40;;
13295;SDS011;64850;60.390;-1.374;2022-11-20T08:29:42;13.52;;;2.83;;
13295;SDS011;64850;60.390;-1.374;2022-11-20T08:32:08;10.70;;;3.15;;
13295;SDS011;64850;60.390;-1.374;2022-11-20T08:34:34;12.45;;;2.35;;
13295;SDS011;64850;60.390;-1.374;2022-11-20T08:37:01;13.70;;;2.85;;
13295;SDS011;64850;60.390;-1.374;2022-11-20T08:39:27;13.60;;;2.95;;
13295;SDS011;64850;60.390;-1.374;2022-11-20T08:41:53;12.48;;;2.70;;
13295;SDS011;64850;60.390;-1.374;2022-11-20T08:44:19;10.15;;;2.72;;
13295;SDS011;64850;60.390;-1.374;2022-11-20T08:46:47;11.52;;;2.67;;
13295;SDS011;64850;60.390;-1.374;2022-11-20T08:49:14;9.52;;;2.38;;
13295;SDS011;64850;60.390;-1.374;2022-11-20T08:51:40;9.90;;;2.78;;
13295;SDS011;64850;60.390;-1.374;2022-11-20T08:54:07;11.10;;;2.97;;
13295;SDS011;64850;60.390;-1.374;2022-11-20T08:56:33;12.10;;;3.53;;
13295;SDS011;64850;60.390;-1.374;2022-11-20T08:59:00;15.43;;;3.28;;
13295;SDS011;64850;60.390;-1.374;2022-11-20T09:01:28;15.30;;;2.95;;
13295;SDS011;64850;60.390;-1.374;2022-11-20T09:03:55;16.95;;;3.28;;
13295;SDS011;64850;60.390;-1.374;2022-11-20T09:06:22;10.30;;;3.13;;
13295;SDS011;64850;60.390;-1.374;2022-11-20T09:08:51;11.82;;;2.67;;
13295;SDS011;64850;60.390;-1.374;2022-11-20T09:11:18;8.10;;;2.70;;
13295;SDS011;64850;60.390;-1.374;2022-11-20T09:13:44;12.82;;;2.38;;
13295;SDS011;64850;60.390;-1.374;2022-11-20T09:16:13;9.73;;;2.67;;
13295;SDS011;64850;60.390;-1.374;2022-11-20T09:18:41;12.43;;;2.88;;
13295;SDS011;64850;60.390;-1.374;2022-11-20T09:21:11;13.93;;;2.75;;
13295;SDS011;64850;60.390;-1.374;2022-11-20T09:23:37;14.85;;;2.75;;
13295;SDS011;64850;60.390;-1.374;2022-11-20T09:26:10;18.15;;;3.03;;
13295;SDS011;64850;60.390;-1.374;2022-11-20T09:28:37;15.30;;;3.10;;
13295;SDS011;64850;60.390;-1.374;2022-11-20T09:31:07;12.20;;;3.60;;
13295;SDS011;64850;60.390;-1.374;2022-11-20T09:33:34;10.07;;;2.60;;
13295;SDS011;64850;60.390;-1.374;2022-11-20T09:36:01;11.15;;;2.67;;
13295;SDS011;64850;60.390;-1.374;2022-11-20T09:38:30;14.70;;;2.92;;
13295;SDS011;64850;60.390;-1.374;2022-11-20T09:43:51;17.98;;;3.30;;
13295;SDS011;64850;60.390;-1.374;2022-11-20T09:46:29;15.88;;;2.92;;
13295;SDS011;64850;60.390;-1.374;2022-11-20T09:51:59;7.13;;;2.80;;
13295;SDS011;64850;60.390;-1.374;2022-11-20T09:54:37;12.52;;;3.38;;
13295;SDS011;64850;60.390;-1.374;2022-11-20T09:57:10;11.45;;;2.80;;
13295;SDS011;64850;60.390;-1.374;2022-11-20T09:59:43;9.45;;;2.78;;
13295;SDS011;64850;60.390;-1.374;2022-11-20T10:04:53;14.27;;;3.05;;
13295;SDS011;64850;60.390;-1.374;2022-11-20T10:07:38;14.57;;;3.58;;
13295;SDS011;64850;60.390;-1.374;2022-11-20T10:10:23;10.13;;;2.90;;
13295;SDS011;64850;60.390;-1.374;2022-11-20T10:13:06;15.73;;;3.15;;
13295;SDS011;64850;60.390;-1.374;2022-11-20T10:24:36;13.32;;;3.22;;
13295;SDS011;64850;60.390;-1.374;2022-11-20T10:30:13;14.50;;;4.07;;
13295;SDS011;64850;60.390;-1.374;2022-11-20T10:32:48;17.10;;;3.55;;
13295;SDS011;64850;60.390;-1.374;2022-11-20T10:35:27;17.23;;;3.63;;
13295;SDS011;64850;60.390;-1.374;2022-11-20T10:38:24;12.80;;;3.78;;
13295;SDS011;64850;60.390;-1.374;2022-11-20T10:40:56;11.35;;;3.30;;
13295;SDS011;64850;60.390;-1.374;2022-11-20T10:43:44;10.90;;;2.80;;
13295;SDS011;64850;60.390;-1.374;2022-11-20T10:46:15;11.98;;;2.72;;
13295;SDS011;64850;60.390;-1.374;2022-11-20T10:48:49;15.13;;;3.42;;
13295;SDS011;64850;60.390;-1.374;2022-11-20T10:56:44;16.20;;;3.33;;
13295;SDS011;64850;60.390;-1.374;2022-11-20T11:01:42;17.10;;;3.85;;
13295;SDS011;64850;60.390;-1.374;2022-11-20T11:04:31;14.18;;;3.10;;
13295;SDS011;64850;60.390;-1.374;2022-11-20T11:06:58;14.23;;;2.92;;
13295;SDS011;64850;60.390;-1.374;2022-11-20T11:09:39;12.43;;;2.85;;
13295;SDS011;64850;60.390;-1.374;2022-11-20T11:12:19;10.40;;;2.80;;
13295;SDS011;64850;60.390;-1.374;2022-11-20T11:14:50;9.20;;;2.70;;
13295;SDS011;64850;60.390;-1.374;2022-11-20T11:17:25;9.32;;;3.03;;
13295;SDS011;64850;60.390;-1.374;2022-11-20T11:22:57;17.60;;;3.55;;
13295;SDS011;64850;60.390;-1.374;2022-11-20T11:27:50;15.77;;;3.47;;
13295;SDS011;64850;60.390;-1.374;2022-11-20T11:30:18;13.35;;;3.42;;
13295;SDS011;64850;60.390;-1.374;2022-11-20T11:32:45;14.52;;;3.05;;
13295;SDS011;64850;60.390;-1.374;2022-11-20T11:35:21;14.75;;;3.10;;
13295;SDS011;64850;60.390;-1.374;2022-11-20T11:37:49;16.73;;;3.17;;
13295;SDS011;64850;60.390;-1.374;2022-11-20T11:40:17;15.27;;;3.60;;
13295;SDS011;64850;60.390;-1.374;2022-11-20T11:42:46;13.75;;;3.20;;
13295;SDS011;64850;60.390;-1.374;2022-11-20T11:45:19;18.63;;;3.42;;
13295;SDS011;64850;60.390;-1.374;2022-11-20T11:47:46;15.52;;;3.88;;
13295;SDS011;64850;60.390;-1.374;2022-11-20T11:50:17;14.90;;;3.55;;
13295;SDS011;64850;60.390;-1.374;2022-11-20T11:52:51;13.23;;;2.60;;
13295;SDS011;64850;60.390;-1.374;2022-11-20T12:03:35;13.70;;;3.25;;
13295;SDS011;64850;60.390;-1.374;2022-11-20T12:06:10;17.52;;;4.38;;
13295;SDS011;64850;60.390;-1.374;2022-11-20T12:11:45;15.80;;;3.63;;
13295;SDS011;64850;60.390;-1.374;2022-11-20T12:16:57;11.43;;;2.88;;
13295;SDS011;64850;60.390;-1.374;2022-11-20T12:19:23;10.55;;;3.03;;
13295;SDS011;64850;60.390;-1.374;2022-11-20T12:30:28;17.25;;;3.88;;
13295;SDS011;64850;60.390;-1.374;2022-11-20T12:33:11;17.02;;;3.47;;
13295;SDS011;64850;60.390;-1.374;2022-11-20T12:44:11;10.80;;;3.28;;
13295;SDS011;64850;60.390;-1.374;2022-11-20T12:47:23;11.05;;;2.90;;
13295;SDS011;64850;60.390;-1.374;2022-11-20T12:50:14;8.75;;;2.50;;
13295;SDS011;64850;60.390;-1.374;2022-11-20T12:56:03;9.10;;;3.05;;
13295;SDS011;64850;60.390;-1.374;2022-11-20T12:58:43;14.48;;;4.15;;
13295;SDS011;64850;60.390;-1.374;2022-11-20T13:04:47;18.45;;;4.00;;
13295;SDS011;64850;60.390;-1.374;2022-11-20T13:07:12;14.35;;;3.67;;
13295;SDS011;64850;60.390;-1.374;2022-11-20T13:09:46;18.23;;;4.03;;
13295;SDS011;64850;60.390;-1.374;2022-11-20T13:12:34;20.80;;;3.72;;
13295;SDS011;64850;60.390;-1.374;2022-11-20T13:18:03;17.83;;;3.30;;
13295;SDS011;64850;60.390;-1.374;2022-11-20T13:20:34;19.83;;;4.22;;
13295;SDS011;64850;60.390;-1.374;2022-11-20T13:23:00;13.85;;;3.22;;
13295;SDS011;64850;60.390;-1.374;2022-11-20T13:25:31;10.93;;;3.05;;
13295;SDS011;64850;60.390;-1.374;2022-11-20T13:28:25;13.15;;;3.38;;
13295;SDS011;64850;60.390;-1.374;2022-11-20T13:30:55;13.18;;;3.33;;
13295;SDS011;64850;60.390;-1.374;2022-11-20T13:33:32;9.25;;;2.72;;
13295;SDS011;64850;60.390;-1.374;2022-11-20T13:38:47;14.43;;;3.08;;
13295;SDS011;64850;60.390;-1.374;2022-11-20T13:43:54;15.65;;;2.83;;
13295;SDS011;64850;60.390;-1.374;2022-11-20T13:46:34;16.17;;;3.38;;
13295;SDS011;64850;60.390;-1.374;2022-11-20T13:49:06;15.57;;;3.80;;
13295;SDS011;64850;60.390;-1.374;2022-11-20T13:54:09;14.85;;;3.20;;
13295;SDS011;64850;60.390;-1.374;2022-11-20T14:01:55;13.20;;;3.35;;
13295;SDS011;64850;60.390;-1.374;2022-11-20T14:04:26;13.30;;;3.53;;
13295;SDS011;64850;60.390;-1.374;2022-11-20T14:06:55;12.88;;;2.85;;
13295;SDS011;64850;60.390;-1.374;2022-11-20T14:09:29;11.32;;;3.30;;
13295;SDS011;64850;60.390;-1.374;2022-11-20T14:11:57;12.35;;;2.80;;
13295;SDS011;64850;60.390;-1.374;2022-11-20T14:14:24;16.52;;;3.92;;
13295;SDS011;64850;60.390;-1.374;2022-11-20T14:16:51;14.50;;;3.05;;
13295;SDS011;64850;60.390;-1.374;2022-11-20T14:19:29;12.88;;;2.70;;
13295;SDS011;64850;60.390;-1.374;2022-11-20T14:22:07;14.95;;;3.35;;
13295;SDS011;64850;60.390;-1.374;2022-11-20T14:24:36;15.43;;;3.10;;
13295;SDS011;64850;60.390;-1.374;2022-11-20T14:27:02;15.75;;;3.35;;
13295;SDS011;64850;60.390;-1.374;2022-11-20T14:29:29;15.25;;;3.63;;
13295;SDS011;64850;60.390;-1.374;2022-11-20T14:32:02;9.80;;;2.53;;
13295;SDS011;64850;60.390;-1.374;2022-11-20T14:34:30;20.08;;;3.45;;
13295;SDS011;64850;60.390;-1.374;2022-11-20T14:36:58;10.70;;;3.40;;
13295;SDS011;64850;60.390;-1.374;2022-11-20T14:39:30;21.58;;;3.50;;
13295;SDS011;64850;60.390;-1.374;2022-11-20T14:42:00;12.57;;;2.95;;
13295;SDS011;64850;60.390;-1.374;2022-11-20T14:44:31;12.27;;;2.95;;
13295;SDS011;64850;60.390;-1.374;2022-11-20T14:46:59;12.32;;;2.72;;
13295;SDS011;64850;60.390;-1.374;2022-11-20T14:49:28;15.43;;;2.80;;
13295;SDS011;64850;60.390;-1.374;2022-11-20T14:52:02;14.05;;;2.97;;
13295;SDS011;64850;60.390;-1.374;2022-11-20T14:54:49;12.32;;;3.20;;
13295;SDS011;64850;60.390;-1.374;2022-11-20T14:57:28;9.55;;;2.92;;
13295;SDS011;64850;60.390;-1.374;2022-11-20T15:00:05;11.63;;;2.92;;
13295;SDS011;64850;60.390;-1.374;2022-11-20T15:02:46;11.25;;;2.78;;
13295;SDS011;64850;60.390;-1.374;2022-11-20T15:05:17;13.70;;;2.25;;
13295;SDS011;64850;60.390;-1.374;2022-11-20T15:07:49;10.77;;;2.42;;
13295;SDS011;64850;60.390;-1.374;2022-11-20T15:10:26;11.60;;;2.45;;
13295;SDS011;64850;60.390;-1.374;2022-11-20T15:18:04;18.08;;;3.05;;
13295;SDS011;64850;60.390;-1.374;2022-11-20T15:20:35;17.65;;;3.55;;
13295;SDS011;64850;60.390;-1.374;2022-11-20T15:23:01;18.42;;;3.10;;
13295;SDS011;64850;60.390;-1.374;2022-11-20T15:25:34;17.77;;;3.70;;
13295;SDS011;64850;60.390;-1.374;2022-11-20T15:28:00;15.82;;;3.78;;
13295;SDS011;64850;60.390;-1.374;2022-11-20T15:30:26;20.88;;;4.00;;
13295;SDS011;64850;60.390;-1.374;2022-11-20T15:32:52;13.30;;;3.55;;
13295;SDS011;64850;60.390;-1.374;2022-11-20T15:35:18;16.38;;;3.30;;
13295;SDS011;64850;60.390;-1.374;2022-11-20T15:37:44;17.80;;;3.50;;
13295;SDS011;64850;60.390;-1.374;2022-11-20T15:40:10;14.85;;;3.35;;
13295;SDS011;64850;60.390;-1.374;2022-11-20T15:42:37;13.13;;;3.30;;
13295;SDS011;64850;60.390;-1.374;2022-11-20T15:45:06;14.30;;;3.30;;
13295;SDS011;64850;60.390;-1.374;2022-11-20T15:47:32;13.50;;;2.83;;
13295;SDS011;64850;60.390;-1.374;2022-11-20T15:50:00;15.35;;;3.33;;
13295;SDS011;64850;60.390;-1.374;2022-11-20T15:52:26;19.77;;;3.55;;
13295;SDS011;64850;60.390;-1.374;2022-11-20T15:54:52;15.80;;;2.83;;
13295;SDS011;64850;60.390;-1.374;2022-11-20T15:57:18;12.25;;;3.13;;
13295;SDS011;64850;60.390;-1.374;2022-11-20T15:59:44;15.10;;;4.03;;
13295;SDS011;64850;60.390;-1.374;2022-11-20T16:02:10;11.75;;;2.85;;
13295;SDS011;64850;60.390;-1.374;2022-11-20T16:04:37;15.82;;;3.42;;
13295;SDS011;64850;60.390;-1.374;2022-11-20T16:07:03;15.00;;;3.33;;
13295;SDS011;64850;60.390;-1.374;2022-11-20T16:09:29;17.77;;;3.42;;
13295;SDS011;64850;60.390;-1.374;2022-11-20T16:11:56;13.45;;;3.03;;
13295;SDS011;64850;60.390;-1.374;2022-11-20T16:14:24;15.30;;;3.10;;